createdAt,value
2022-08-02T00:00:15.006Z,99750.37
2022-08-02T00:02:43.549Z,99740.69
2022-08-02T00:05:11.516Z,99739.91
2022-08-02T00:07:41.160Z,99746.03
2022-08-02T00:10:10.871Z,99745.88
2022-08-02T00:12:39.040Z,99745.62
2022-08-02T00:15:08.211Z,99745.44
2022-08-02T00:17:35.853Z,99748.44
2022-08-02T00:20:04.541Z,99745.00
2022-08-02T00:22:32.451Z,99738.34
2022-08-02T00:25:00.053Z,99734.47
2022-08-02T00:27:27.441Z,99743.63
2022-08-02T00:29:55.362Z,99744.47
2022-08-02T00:32:23.427Z,99746.78
2022-08-02T00:34:51.302Z,99736.94
2022-08-02T00:37:18.670Z,99741.91
2022-08-02T00:39:46.271Z,99744.28
2022-08-02T00:42:16.703Z,99742.25
2022-08-02T00:44:44.099Z,99748.94
2022-08-02T00:47:13.948Z,99746.00
2022-08-02T00:49:47.482Z,99748.84
2022-08-02T00:52:15.433Z,99757.41
2022-08-02T00:54:42.859Z,99764.59
2022-08-02T00:57:10.214Z,99761.94
2022-08-02T00:59:37.802Z,99761.69
2022-08-02T01:02:05.163Z,99760.16
2022-08-02T01:04:32.610Z,99762.47
2022-08-02T01:07:01.213Z,99759.56
2022-08-02T01:09:28.568Z,99756.66
2022-08-02T01:11:56.153Z,99753.72
2022-08-02T01:14:25.323Z,99756.28
2022-08-02T01:17:01.468Z,99756.63
2022-08-02T01:19:52.163Z,99755.53
2022-08-02T01:23:00.079Z,99752.69
2022-08-02T01:25:38.572Z,99756.84
2022-08-02T01:28:20.917Z,99758.31
2022-08-02T01:30:57.585Z,99759.19
2022-08-02T01:33:28.465Z,99766.53
2022-08-02T01:35:56.963Z,99766.88
2022-08-02T01:38:31.109Z,99771.50
2022-08-02T01:40:59.140Z,99770.22
2022-08-02T01:43:28.526Z,99770.94
2022-08-02T01:45:56.797Z,99777.31
2022-08-02T01:48:26.768Z,99767.19
2022-08-02T01:50:54.429Z,99769.31
2022-08-02T01:53:22.502Z,99786.94
2022-08-02T01:55:57.711Z,99781.13
2022-08-02T01:58:31.762Z,99788.22
2022-08-02T02:01:00.087Z,99786.78
2022-08-02T02:03:29.726Z,99789.69
2022-08-02T02:05:58.785Z,99796.88
2022-08-02T02:08:32.862Z,99793.16
2022-08-02T02:12:09.351Z,99790.50
2022-08-02T02:13:49.567Z,99793.78
2022-08-02T02:16:17.474Z,99794.47
2022-08-02T02:18:45.112Z,99807.47
2022-08-02T02:21:12.811Z,99798.69
2022-08-02T02:23:40.818Z,99805.69
2022-08-02T02:26:11.520Z,99801.88
2022-08-02T02:28:41.228Z,99797.72
2022-08-02T02:31:10.539Z,99800.09
2022-08-02T02:33:47.089Z,99794.25
2022-08-02T02:36:16.963Z,99793.28
2022-08-02T02:38:45.458Z,99799.06
2022-08-02T02:41:13.091Z,99803.72
2022-08-02T02:43:41.650Z,99809.66
2022-08-02T02:46:10.298Z,99818.41
2022-08-02T02:48:37.978Z,99813.19
2022-08-02T02:51:08.165Z,99815.56
2022-08-02T02:54:32.903Z,99807.94
2022-08-02T02:56:30.904Z,99798.41
2022-08-02T02:59:00.621Z,99797.13
2022-08-02T03:01:56.264Z,99796.06
2022-08-02T03:04:16.001Z,99796.94
2022-08-02T03:06:43.424Z,99795.94
2022-08-02T03:09:11.581Z,99791.34
2022-08-02T03:11:39.810Z,99786.97
2022-08-02T03:14:10.934Z,99787.22
2022-08-02T03:16:52.179Z,99786.50
2022-08-02T03:19:21.375Z,99778.56
2022-08-02T03:21:56.572Z,99777.50
2022-08-02T03:24:28.031Z,99777.94
2022-08-02T03:26:56.175Z,99782.13
2022-08-02T03:29:23.518Z,99789.31
2022-08-02T03:31:51.042Z,99793.50
2022-08-02T03:34:18.748Z,99795.25
2022-08-02T03:36:48.584Z,99793.00
2022-08-02T03:39:16.887Z,99798.25
2022-08-02T03:41:44.535Z,99805.84
2022-08-02T03:44:12.607Z,99802.09
2022-08-02T03:46:40.882Z,99804.25
2022-08-02T03:49:09.427Z,99807.31
2022-08-02T03:51:37.041Z,99809.72
2022-08-02T03:54:04.492Z,99806.53
2022-08-02T03:56:32.124Z,99815.03
2022-08-02T03:59:07.799Z,99812.84
2022-08-02T04:01:35.511Z,99814.81
2022-08-02T04:04:03.196Z,99816.72
2022-08-02T04:06:30.539Z,99825.41
2022-08-02T04:08:58.273Z,99822.81
2022-08-02T04:11:31.827Z,99822.66
2022-08-02T04:14:00.773Z,99824.09
2022-08-02T04:16:50.540Z,99826.66
2022-08-02T04:19:41.791Z,99825.72
2022-08-02T04:22:17.661Z,99827.69
2022-08-02T04:24:50.232Z,99828.53
2022-08-02T04:27:49.231Z,99835.47
2022-08-02T04:30:07.072Z,99836.91
2022-08-02T04:32:35.512Z,99838.91
2022-08-02T04:35:19.930Z,99831.03
2022-08-02T04:38:09.414Z,99835.56
2022-08-02T04:40:36.473Z,99834.56
2022-08-02T04:43:04.100Z,99840.41
2022-08-02T04:45:31.908Z,99836.50
2022-08-02T04:48:04.988Z,99834.34
2022-08-02T04:50:33.779Z,99835.03
2022-08-02T04:53:01.586Z,99836.91
2022-08-02T04:55:29.827Z,99833.72
2022-08-02T04:57:58.847Z,99842.44
2022-08-02T05:00:28.530Z,99840.28
2022-08-02T05:02:59.944Z,99843.56
2022-08-02T05:05:27.572Z,99845.44
2022-08-02T05:07:55.111Z,99849.63
2022-08-02T05:10:22.675Z,99858.44
2022-08-02T05:12:50.408Z,99865.63
2022-08-02T05:15:18.623Z,99864.03
2022-08-02T05:17:48.578Z,99857.22
2022-08-02T05:20:18.246Z,99864.59
2022-08-02T05:22:46.500Z,99873.78
2022-08-02T05:25:13.920Z,99878.75
2022-08-02T05:27:41.604Z,99890.72
2022-08-02T05:30:09.439Z,99888.28
2022-08-02T05:32:46.966Z,99879.28
2022-08-02T05:35:17.710Z,99887.00
2022-08-02T05:37:45.155Z,99883.88
2022-08-02T05:40:16.798Z,99888.47
2022-08-02T05:42:44.373Z,99890.62
2022-08-02T05:45:11.887Z,99895.25
2022-08-02T05:47:39.703Z,99900.69
2022-08-02T05:50:09.059Z,99895.69
2022-08-02T05:52:46.707Z,99900.75
2022-08-02T05:55:19.336Z,99893.78
2022-08-02T05:58:03.583Z,99896.06
2022-08-02T06:00:32.288Z,99900.63
2022-08-02T06:03:02.808Z,99894.44
2022-08-02T06:05:34.557Z,99897.06
2022-08-02T06:08:04.348Z,99905.47
2022-08-02T06:10:36.549Z,99900.03
2022-08-02T06:13:14.175Z,99905.62
2022-08-02T06:15:53.233Z,99902.28
2022-08-02T06:18:28.018Z,99903.72
2022-08-02T06:22:31.689Z,99898.00
2022-08-02T06:23:58.556Z,99904.13
2022-08-02T06:26:28.245Z,99900.41
2022-08-02T06:28:57.787Z,99896.75
2022-08-02T06:31:25.548Z,99900.63
2022-08-02T06:33:53.101Z,99908.22
2022-08-02T06:36:39.499Z,99901.28
2022-08-02T06:39:18.763Z,99906.94
2022-08-02T06:41:48.295Z,99907.06
2022-08-02T06:47:12.037Z,99915.44
2022-08-02T06:49:52.265Z,99905.31
2022-08-02T06:52:28.370Z,99908.19
2022-08-02T06:55:01.173Z,99909.97
2022-08-02T06:57:29.401Z,99906.44
2022-08-02T06:59:56.825Z,99914.19
2022-08-02T07:02:24.429Z,99902.56
2022-08-02T07:04:52.171Z,99903.69
2022-08-02T07:07:19.833Z,99902.78
2022-08-02T07:09:56.310Z,99903.78
2022-08-02T07:12:32.682Z,99906.47
2022-08-02T07:15:00.356Z,99894.84
2022-08-02T07:17:28.566Z,99900.97
2022-08-02T07:19:56.764Z,99891.63
2022-08-02T07:22:26.710Z,99894.87
2022-08-02T07:24:58.866Z,99889.66
2022-08-02T07:27:27.056Z,99894.81
2022-08-02T07:29:54.944Z,99892.22
2022-08-02T07:32:24.491Z,99895.53
2022-08-02T07:34:54.178Z,99892.69
2022-08-02T07:37:51.182Z,99879.75
2022-08-02T07:40:14.743Z,99885.13
2022-08-02T07:42:57.800Z,99879.37
2022-08-02T07:45:27.772Z,99876.25
2022-08-02T07:47:56.937Z,99876.38
2022-08-02T07:50:24.748Z,99875.81
2022-08-02T07:52:53.712Z,99884.75
2022-08-02T07:55:39.628Z,99877.16
2022-08-02T07:58:11.204Z,99882.53
2022-08-02T08:00:43.143Z,99885.41
2022-08-02T08:03:11.055Z,99876.00
2022-08-02T08:05:38.391Z,99880.59
2022-08-02T08:08:06.076Z,99879.22
2022-08-02T08:10:33.771Z,99878.31
2022-08-02T08:13:01.143Z,99883.56
2022-08-02T08:15:28.526Z,99890.38
2022-08-02T08:17:56.150Z,99886.69
2022-08-02T08:20:23.611Z,99891.22
2022-08-02T08:22:51.102Z,99892.66
2022-08-02T08:25:18.931Z,99883.84
2022-08-02T08:27:52.034Z,99887.34
2022-08-02T08:30:20.768Z,99893.28
2022-08-02T08:32:48.432Z,99884.94
2022-08-02T08:35:16.196Z,99888.34
2022-08-02T08:37:44.030Z,99891.63
2022-08-02T08:40:12.291Z,99892.31
2022-08-02T08:42:40.105Z,99895.84
2022-08-02T08:45:09.021Z,99900.03
2022-08-02T08:47:42.779Z,99901.19
2022-08-02T08:50:25.922Z,99898.28
2022-08-02T08:53:05.525Z,99896.09
2022-08-02T08:55:34.509Z,99899.47
2022-08-02T08:58:03.241Z,99900.53
2022-08-02T09:00:32.508Z,99892.81
2022-08-02T09:03:03.261Z,99897.56
2022-08-02T09:05:30.911Z,99901.34
2022-08-02T09:07:58.264Z,99901.37
2022-08-02T09:10:34.091Z,99901.94
2022-08-02T09:13:43.544Z,99901.06
2022-08-02T09:16:11.729Z,99898.53
2022-08-02T09:18:47.081Z,99897.69
2022-08-02T09:21:16.784Z,99895.09
2022-08-02T09:23:46.275Z,99890.44
2022-08-02T09:26:15.544Z,99892.44
2022-08-02T09:28:46.456Z,99901.81
2022-08-02T09:31:16.069Z,99899.12
2022-08-02T09:33:45.002Z,99899.78
2022-08-02T09:36:16.582Z,99892.56
2022-08-02T09:38:58.324Z,99893.56
2022-08-02T09:41:27.979Z,99897.81
2022-08-02T09:44:04.726Z,99902.66
2022-08-02T09:46:45.028Z,99889.63
2022-08-02T09:49:17.750Z,99892.75
2022-08-02T09:51:45.335Z,99890.69
2022-08-02T09:54:17.622Z,99886.50
2022-08-02T09:56:53.284Z,99899.88
2022-08-02T09:59:24.791Z,99886.84
2022-08-02T10:02:01.245Z,99882.03
2022-08-02T10:04:31.725Z,99884.31
2022-08-02T10:07:03.640Z,99876.50
2022-08-02T10:09:31.681Z,99880.91
2022-08-02T10:12:00.163Z,99876.59
2022-08-02T10:14:27.946Z,99881.38
2022-08-02T10:16:56.982Z,99876.84
2022-08-02T10:20:00.921Z,99876.41
2022-08-02T10:22:14.683Z,99875.38
2022-08-02T10:24:48.043Z,99875.12
2022-08-02T10:27:20.937Z,99868.91
2022-08-02T10:29:54.347Z,99865.47
2022-08-02T10:32:32.776Z,99870.47
2022-08-02T10:35:19.803Z,99866.78
2022-08-02T10:38:04.643Z,99862.50
2022-08-02T10:40:51.394Z,99853.72
2022-08-02T10:43:31.192Z,99858.97
2022-08-02T10:46:31.627Z,99849.81
2022-08-02T10:49:37.384Z,99858.22
2022-08-02T10:52:05.388Z,99862.69
2022-08-02T10:54:36.233Z,99860.69
2022-08-02T10:57:15.307Z,99861.78
2022-08-02T10:59:43.561Z,99861.69
2022-08-02T11:02:11.928Z,99868.47
2022-08-02T11:04:39.280Z,99856.00
2022-08-02T11:07:18.137Z,99860.50
2022-08-02T11:09:47.599Z,99857.97
2022-08-02T11:12:18.052Z,99849.75
2022-08-02T11:14:58.612Z,99852.84
2022-08-02T11:17:28.919Z,99840.94
2022-08-02T11:20:08.578Z,99841.63
2022-08-02T11:22:36.687Z,99849.09
2022-08-02T11:25:24.266Z,99853.03
2022-08-02T11:28:08.930Z,99850.34
2022-08-02T11:30:37.132Z,99848.44
2022-08-02T11:33:05.025Z,99852.84
2022-08-02T11:35:34.721Z,99850.94
2022-08-02T11:38:18.581Z,99847.97
2022-08-02T11:40:47.065Z,99845.91
2022-08-02T11:43:20.462Z,99839.19
2022-08-02T11:45:50.131Z,99840.09
2022-08-02T11:48:33.802Z,99841.72
2022-08-02T11:51:04.082Z,99843.09
2022-08-02T11:53:41.911Z,99843.06
2022-08-02T11:56:10.771Z,99834.94
2022-08-02T11:58:38.497Z,99827.41
2022-08-02T12:01:09.434Z,99838.31
2022-08-02T12:03:38.767Z,99839.22
2022-08-02T12:06:16.429Z,99840.81
2022-08-02T12:08:54.264Z,99849.44
2022-08-02T12:11:22.456Z,99843.03
2022-08-02T12:13:56.373Z,99842.97
2022-08-02T12:16:43.776Z,99832.53
2022-08-02T12:19:20.034Z,99837.38
2022-08-02T12:21:47.504Z,99841.19
2022-08-02T12:24:28.285Z,99831.69
2022-08-02T12:26:56.941Z,99833.81
2022-08-02T12:29:57.815Z,99828.63
2022-08-02T12:32:25.174Z,99832.25
2022-08-02T12:35:10.620Z,99829.88
2022-08-02T12:37:42.802Z,99824.59
2022-08-02T12:40:29.622Z,99819.19
2022-08-02T12:43:07.961Z,99815.16
2022-08-02T12:45:49.064Z,99821.59
2022-08-02T12:48:36.707Z,99824.75
2022-08-02T12:51:21.990Z,99819.03
2022-08-02T12:53:58.940Z,99824.84
2022-08-02T12:56:33.520Z,99825.94
2022-08-02T12:59:00.914Z,99816.88
2022-08-02T13:01:29.784Z,99823.34
2022-08-02T13:04:09.058Z,99813.62
2022-08-02T13:06:44.388Z,99818.31
2022-08-02T13:09:17.110Z,99818.78
2022-08-02T13:11:45.598Z,99819.19
2022-08-02T13:14:14.134Z,99816.09
2022-08-02T13:16:43.584Z,99805.25
2022-08-02T13:19:11.300Z,99807.22
2022-08-02T13:21:41.355Z,99796.16
2022-08-02T13:24:38.219Z,99804.59
2022-08-02T13:27:08.139Z,99794.16
2022-08-02T13:29:37.888Z,99793.91
2022-08-02T13:32:05.956Z,99796.16
2022-08-02T13:34:33.361Z,99790.94
2022-08-02T13:37:01.853Z,99792.63
2022-08-02T13:39:29.495Z,99804.34
2022-08-02T13:41:56.860Z,99797.66
2022-08-02T13:44:24.437Z,99794.03
2022-08-02T13:46:51.780Z,99799.38
2022-08-02T13:49:20.321Z,99794.84
2022-08-02T13:51:49.915Z,99793.44
2022-08-02T13:54:17.502Z,99791.59
2022-08-02T13:56:44.912Z,99791.75
2022-08-02T13:59:54.328Z,99790.38
2022-08-02T14:02:00.409Z,99783.84
2022-08-02T14:04:29.620Z,99787.09
2022-08-02T14:06:58.943Z,99780.75
2022-08-02T14:09:26.869Z,99783.28
2022-08-02T14:11:54.457Z,99779.72
2022-08-02T14:14:21.772Z,99792.03
2022-08-02T14:16:49.108Z,99782.72
2022-08-02T14:19:17.531Z,99778.97
2022-08-02T14:21:46.352Z,99778.44
2022-08-02T14:24:20.269Z,99778.13
2022-08-02T14:26:48.540Z,99777.88
2022-08-02T14:29:16.511Z,99772.47
2022-08-02T14:31:45.086Z,99785.28
2022-08-02T14:34:13.667Z,99774.66
2022-08-02T14:36:41.107Z,99784.00
2022-08-02T14:39:08.486Z,99771.22
2022-08-02T14:41:58.237Z,99772.00
2022-08-02T14:44:24.734Z,99781.63
2022-08-02T14:46:52.683Z,99769.12
2022-08-02T14:49:25.334Z,99775.06
2022-08-02T14:51:54.666Z,99769.28
2022-08-02T14:54:27.790Z,99773.94
2022-08-02T14:56:59.042Z,99778.63
2022-08-02T14:59:26.895Z,99779.06
2022-08-02T15:01:54.744Z,99780.59
2022-08-02T15:04:22.389Z,99780.47
2022-08-02T15:06:49.752Z,99784.41
2022-08-02T15:09:17.137Z,99780.87
2022-08-02T15:11:47.969Z,99782.44
2022-08-02T15:14:25.733Z,99792.94
2022-08-02T15:16:57.501Z,99787.53
2022-08-02T15:19:30.280Z,99787.41
2022-08-02T15:22:16.815Z,99785.53
2022-08-02T15:24:46.654Z,99796.03
2022-08-02T15:27:15.206Z,99787.25
2022-08-02T15:29:43.619Z,99784.41
2022-08-02T15:32:11.861Z,99773.31
2022-08-02T15:34:40.319Z,99780.37
2022-08-02T15:37:07.724Z,99784.88
2022-08-02T15:39:35.211Z,99781.69
2022-08-02T15:42:03.149Z,99780.44
2022-08-02T15:44:30.627Z,99777.94
2022-08-02T15:46:58.040Z,99783.47
2022-08-02T15:49:26.408Z,99784.91
2022-08-02T15:51:54.379Z,99774.84
2022-08-02T15:54:21.730Z,99782.84
2022-08-02T15:56:49.766Z,99783.88
2022-08-02T15:59:17.464Z,99788.13
2022-08-02T16:01:47.848Z,99784.91
2022-08-02T16:04:16.729Z,99785.34
2022-08-02T16:06:44.114Z,99790.13
2022-08-02T16:09:11.498Z,99774.81
2022-08-02T16:11:39.244Z,99782.19
2022-08-02T16:14:06.985Z,99781.75
2022-08-02T16:16:35.647Z,99787.31
2022-08-02T16:19:47.082Z,99787.72
2022-08-02T16:21:53.487Z,99787.28
2022-08-02T16:24:21.309Z,99784.69
2022-08-02T16:26:49.054Z,99783.69
2022-08-02T16:29:18.882Z,99787.63
2022-08-02T16:31:47.930Z,99788.03
2022-08-02T16:34:16.703Z,99789.31
2022-08-02T16:36:44.611Z,99790.47
2022-08-02T16:39:12.209Z,99790.34
2022-08-02T16:41:51.925Z,99796.78
2022-08-02T16:44:29.730Z,99788.59
2022-08-02T16:47:00.563Z,99789.72
2022-08-02T16:50:05.873Z,99793.97
2022-08-02T16:52:33.654Z,99789.97
2022-08-02T16:55:01.283Z,99783.69
2022-08-02T16:57:42.681Z,99791.28
2022-08-02T17:00:13.991Z,99797.94
2022-08-02T17:02:43.242Z,99793.56
2022-08-02T17:05:14.435Z,99788.81
2022-08-02T17:08:07.352Z,99796.66
2022-08-02T17:10:31.156Z,99790.09
2022-08-02T17:13:11.560Z,99795.56
2022-08-02T17:16:07.395Z,99800.72
2022-08-02T17:18:29.310Z,99804.72
2022-08-02T17:20:56.895Z,99803.94
2022-08-02T17:24:04.291Z,99802.94
2022-08-02T17:26:13.168Z,99811.41
2022-08-02T17:29:03.701Z,99810.63
2022-08-02T17:31:30.117Z,99808.50
2022-08-02T17:34:04.928Z,99820.31
2022-08-02T17:36:32.970Z,99822.41
2022-08-02T17:39:00.315Z,99823.81
2022-08-02T17:41:37.696Z,99822.59
2022-08-02T17:44:08.604Z,99825.91
2022-08-02T17:46:37.179Z,99826.69
2022-08-02T17:49:16.995Z,99829.72
2022-08-02T17:52:48.372Z,99830.97
2022-08-02T17:54:33.351Z,99836.81
2022-08-02T17:57:00.951Z,99833.00
2022-08-02T17:59:30.762Z,99839.50
2022-08-02T18:02:09.380Z,99850.22
2022-08-02T18:04:39.025Z,99845.84
2022-08-02T18:07:09.459Z,99853.56
2022-08-02T18:09:39.540Z,99853.69
2022-08-02T18:12:15.344Z,99855.28
2022-08-02T18:17:33.915Z,99869.53
2022-08-02T18:20:08.583Z,99868.69
2022-08-02T18:22:39.786Z,99872.09
2022-08-02T18:25:10.364Z,99874.78
2022-08-02T18:27:46.109Z,99878.78
2022-08-02T18:30:17.666Z,99887.34
2022-08-02T18:33:59.778Z,99885.25
2022-08-02T18:35:43.495Z,99886.81
2022-08-02T18:38:11.766Z,99888.03
2022-08-02T18:40:39.387Z,99888.75
2022-08-02T18:43:07.658Z,99892.72
2022-08-02T18:45:36.878Z,99895.25
2022-08-02T18:48:23.047Z,99900.97
2022-08-02T18:50:53.770Z,99903.00
2022-08-02T18:53:39.121Z,99906.72
2022-08-02T18:56:20.262Z,99905.28
2022-08-02T18:59:02.932Z,99903.69
2022-08-02T19:01:32.257Z,99905.75
2022-08-02T19:04:02.460Z,99906.19
2022-08-02T19:06:30.577Z,99911.16
2022-08-02T19:09:06.017Z,99902.81
2022-08-02T19:11:48.177Z,99911.88
2022-08-02T19:14:24.049Z,99915.41
2022-08-02T19:16:56.305Z,99911.66
2022-08-02T19:19:28.750Z,99918.13
2022-08-02T19:22:16.339Z,99920.06
2022-08-02T19:24:47.067Z,99922.63
2022-08-02T19:27:15.466Z,99917.19
2022-08-02T19:29:50.827Z,99914.84
2022-08-02T19:32:42.298Z,99919.53
2022-08-02T19:35:19.488Z,99923.69
2022-08-02T19:37:59.259Z,99923.00
2022-08-02T19:40:28.774Z,99925.03
2022-08-02T19:44:26.589Z,99923.56
2022-08-02T19:45:49.867Z,99919.59
2022-08-02T19:48:24.414Z,99912.84
2022-08-02T19:50:55.934Z,99915.44
2022-08-02T19:53:28.973Z,99914.75
2022-08-02T19:56:21.101Z,99912.34
2022-08-02T19:58:51.369Z,99912.88
2022-08-02T20:01:25.284Z,99916.75
2022-08-02T20:03:56.159Z,99930.84
2022-08-02T20:06:29.762Z,99921.41
2022-08-02T20:09:01.312Z,99928.16
2022-08-02T20:11:34.411Z,99924.00
2022-08-02T20:14:04.704Z,99924.94
2022-08-02T20:16:33.348Z,99918.41
2022-08-02T20:19:02.763Z,99922.88
2022-08-02T20:21:36.546Z,99922.31
2022-08-02T20:24:06.429Z,99922.47
2022-08-02T20:26:35.211Z,99929.81
2022-08-02T20:29:04.110Z,99928.75
2022-08-02T20:31:31.525Z,99924.41
2022-08-02T20:33:59.141Z,99923.22
2022-08-02T20:36:27.227Z,99935.59
2022-08-02T20:38:55.283Z,99924.87
2022-08-02T20:41:23.728Z,99925.72
2022-08-02T20:44:04.876Z,99931.16
2022-08-02T20:46:44.150Z,99922.78
2022-08-02T20:49:23.125Z,99930.88
2022-08-02T20:51:53.921Z,99921.25
2022-08-02T20:54:21.931Z,99937.84
2022-08-02T20:56:50.571Z,99932.69
2022-08-02T20:59:21.097Z,99936.41
2022-08-02T21:01:56.787Z,99933.66
2022-08-02T21:04:26.340Z,99935.00
2022-08-02T21:06:55.782Z,99928.62
2022-08-02T21:09:52.497Z,99929.09
2022-08-02T21:12:12.628Z,99930.97
2022-08-02T21:14:41.956Z,99928.75
2022-08-02T21:17:11.086Z,99932.19
2022-08-02T21:19:44.140Z,99945.19
2022-08-02T21:22:12.125Z,99942.53
2022-08-02T21:24:39.877Z,99948.03
2022-08-02T21:27:51.984Z,99943.28
2022-08-02T21:29:55.063Z,99950.03
2022-08-02T21:32:22.454Z,99940.59
2022-08-02T21:34:49.843Z,99940.00
2022-08-02T21:37:17.459Z,99943.13
2022-08-02T21:39:44.847Z,99942.41
2022-08-02T21:42:22.585Z,99944.12
2022-08-02T21:44:51.065Z,99950.03
2022-08-02T21:47:27.339Z,99949.31
2022-08-02T21:50:10.080Z,99950.81
2022-08-02T21:52:42.324Z,99941.59
2022-08-02T21:55:24.233Z,99951.72
2022-08-02T21:58:07.645Z,99950.44
2022-08-02T22:00:34.985Z,99950.28
2022-08-02T22:03:22.960Z,99944.75
2022-08-02T22:05:50.180Z,99936.12
2022-08-02T22:08:19.365Z,99940.06
2022-08-02T22:11:03.148Z,99941.59
2022-08-02T22:13:38.839Z,99936.31
2022-08-02T22:16:20.632Z,99940.72
2022-08-02T22:18:52.661Z,99932.84
2022-08-02T22:21:22.865Z,99938.94
2022-08-02T22:23:52.068Z,99939.69
2022-08-02T22:26:20.511Z,99943.03
2022-08-02T22:28:50.456Z,99936.47
2022-08-02T22:31:19.558Z,99940.13
2022-08-02T22:34:11.785Z,99939.16
2022-08-02T22:36:55.299Z,99942.19
2022-08-02T22:39:22.720Z,99942.50
2022-08-02T22:44:37.752Z,99945.94
2022-08-02T22:47:14.637Z,99956.31
2022-08-02T22:49:44.558Z,99957.25
2022-08-02T22:52:21.098Z,99956.31
2022-08-02T22:54:48.900Z,99952.00
2022-08-02T22:57:30.471Z,99955.28
2022-08-02T22:58:43.502Z,99861.22
2022-08-02T23:00:10.071Z,99960.16
2022-08-02T23:02:37.836Z,99960.91
2022-08-02T23:05:06.318Z,99959.88
2022-08-02T23:07:38.546Z,99959.38
2022-08-02T23:10:07.918Z,99965.34
2022-08-02T23:12:35.323Z,99955.37
2022-08-02T23:15:02.977Z,99958.69
2022-08-02T23:17:49.086Z,99954.56
2022-08-02T23:20:20.476Z,99948.44
2022-08-02T23:22:48.105Z,99959.66
2022-08-02T23:25:15.437Z,99958.78
2022-08-02T23:27:50.274Z,99959.31
2022-08-02T23:30:19.275Z,99959.09
2022-08-02T23:32:46.849Z,99958.13
2022-08-02T23:35:17.219Z,99962.53
2022-08-02T23:37:59.666Z,99966.44
2022-08-02T23:40:40.538Z,99958.78
2022-08-02T23:43:13.510Z,99957.84
2022-08-02T23:45:44.534Z,99954.25
2022-08-02T23:48:12.191Z,99944.28
2022-08-02T23:50:39.652Z,99953.16
2022-08-02T23:53:06.993Z,99962.16
2022-08-02T23:55:34.609Z,99960.38
2022-08-02T23:58:01.905Z,99957.84
